Time;durP1;ratioP1;P1;durP2;ratioP2;P2;SDS_P1;SDS_P2;PMS_P1;PMS_P2;Temp;Humidity;BMP_temperature;BMP_pressure;BME280_temperature;BME280_humidity;BME280_pressure;Samples;Min_cycle;Max_cycle;Signal;HPM_P1;HPM_P2
2021/04/06 00:01:50;;;;;;;9.53;2.20;;;23.30;99.90;;;;;;5052484;28;20175;-73
2021/04/06 00:04:24;;;;;;;9.30;2.10;;;23.50;99.90;;;;;;5052571;28;20176;-72
2021/04/06 00:07:03;;;;;;;9.67;2.20;;;23.60;99.90;;;;;;5034454;28;20179;-72
2021/04/06 00:09:33;;;;;;;7.37;1.87;;;23.80;99.90;;;;;;5052503;28;20207;-71
2021/04/06 00:12:04;;;;;;;9.50;2.20;;;23.80;99.90;;;;;;5052718;28;20695;-71
2021/04/06 00:14:32;;;;;;;8.63;2.33;;;23.90;99.90;;;;;;5051966;28;20176;-71
2021/04/06 00:17:06;;;;;;;9.10;1.27;;;23.90;99.90;;;;;;5051944;28;20213;-72
2021/04/06 00:19:36;;;;;;;8.10;1.67;;;24.00;99.90;;;;;;5052295;28;20168;-71
2021/04/06 00:22:06;;;;;;;8.20;1.70;;;24.00;99.90;;;;;;5052320;28;20180;-71
2021/04/06 00:24:38;;;;;;;11.33;1.73;;;24.00;99.90;;;;;;5045614;28;20180;-72
2021/04/06 00:27:10;;;;;;;8.70;2.00;;;24.00;99.90;;;;;;5049943;28;20176;-73
2021/04/06 00:29:39;;;;;;;10.63;2.37;;;24.10;99.90;;;;;;5050923;28;20240;-72
2021/04/06 00:32:08;;;;;;;8.10;1.50;;;24.20;99.90;;;;;;5051780;28;20226;-72
2021/04/06 00:34:37;;;;;;;12.83;1.87;;;24.30;99.90;;;;;;5046287;28;20184;-71
2021/04/06 00:37:12;;;;;;;10.70;2.53;;;24.30;99.90;;;;;;5046398;28;20179;-74
2021/04/06 00:39:40;;;;;;;10.27;2.40;;;24.20;99.90;;;;;;5048244;28;20180;-72
2021/04/06 00:42:20;;;;;;;13.37;2.83;;;24.00;99.90;;;;;;5051871;28;20183;-73
2021/04/06 00:44:56;;;;;;;10.30;2.40;;;24.00;99.90;;;;;;5041978;28;20610;-73
2021/04/06 00:47:30;;;;;;;9.00;2.20;;;23.90;99.90;;;;;;5040530;28;20199;-72
2021/04/06 00:50:04;;;;;;;7.70;2.00;;;24.00;99.90;;;;;;5050529;28;20645;-72
2021/04/06 00:52:33;;;;;;;5.97;1.77;;;24.00;99.90;;;;;;5051963;28;20176;-70
2021/04/06 00:55:02;;;;;;;7.50;1.90;;;24.10;99.90;;;;;;5051556;28;20660;-71
2021/04/06 00:57:32;;;;;;;7.67;2.00;;;24.20;99.90;;;;;;5045806;28;20191;-72
2021/04/06 01:00:30;;;;;;;5.90;1.70;;;24.30;99.90;;;;;;5037880;28;20192;-71
2021/04/06 01:03:26;;;;;;;14.20;2.53;;;24.90;99.90;;;;;;5036046;28;20188;-71
2021/04/06 01:06:00;;;;;;;5.00;1.27;;;25.30;99.90;;;;;;5049142;28;20196;-71
2021/04/06 01:08:32;;;;;;;13.77;2.07;;;25.20;99.90;;;;;;5049968;28;20690;-72
2021/04/06 01:11:04;;;;;;;8.77;2.07;;;25.50;99.90;;;;;;5051975;28;20232;-71
2021/04/06 01:13:34;;;;;;;8.90;2.30;;;25.70;99.90;;;;;;5051748;28;20172;-69
2021/04/06 01:16:03;;;;;;;6.90;1.30;;;25.50;99.90;;;;;;5051057;28;20650;-72
2021/04/06 01:18:31;;;;;;;11.90;2.60;;;25.60;99.90;;;;;;5051751;28;20203;-71
2021/04/06 01:20:59;;;;;;;9.73;2.37;;;25.40;99.90;;;;;;5051740;28;20532;-71
2021/04/06 01:23:26;;;;;;;6.27;1.53;;;25.50;99.90;;;;;;5051749;28;20179;-70
2021/04/06 01:25:56;;;;;;;7.10;2.10;;;25.50;99.90;;;;;;5034055;28;20172;-70
2021/04/06 01:28:28;;;;;;;10.43;2.27;;;25.40;99.90;;;;;;5051185;28;20219;-70
2021/04/06 01:30:57;;;;;;;16.53;1.70;;;25.60;99.90;;;;;;5051790;28;20678;-71
2021/04/06 01:33:30;;;;;;;6.83;2.23;;;26.20;99.90;;;;;;5051854;28;20677;-72
2021/04/06 01:36:10;;;;;;;5.97;1.83;;;26.60;99.90;;;;;;5047536;28;20642;-69
2021/04/06 01:38:41;;;;;;;8.43;1.60;;;26.80;99.90;;;;;;5043517;28;20542;-68
2021/04/06 01:41:08;;;;;;;7.93;1.70;;;26.60;99.90;;;;;;5035334;28;20188;-70
2021/04/06 01:43:40;;;;;;;5.23;1.67;;;26.50;99.90;;;;;;5054832;28;20554;-71
2021/04/06 01:46:31;;;;;;;9.40;1.83;;;26.90;99.90;;;;;;5054625;28;20599;-68
2021/04/06 01:48:59;;;;;;;7.53;1.30;;;27.60;99.90;;;;;;5052428;28;20204;-70
2021/04/06 01:51:26;;;;;;;6.43;1.10;;;27.90;99.90;;;;;;5052381;28;20188;-71
2021/04/06 01:53:54;;;;;;;8.63;1.80;;;28.00;99.90;;;;;;5043039;28;20650;-69
2021/04/06 01:56:29;;;;;;;5.57;1.60;;;27.80;99.90;;;;;;5046336;28;20184;-70
2021/04/06 01:59:01;;;;;;;6.40;1.43;;;28.30;99.90;;;;;;5048924;28;20179;-69
2021/04/06 02:01:30;;;;;;;6.10;1.77;;;28.90;99.90;;;;;;5044897;28;20183;-69
2021/04/06 02:04:04;;;;;;;11.00;2.07;;;28.90;99.90;;;;;;5047587;28;20195;-68
2021/04/06 02:06:36;;;;;;;4.77;1.40;;;28.50;99.90;;;;;;5049801;28;20270;-71
2021/04/06 02:09:09;;;;;;;8.23;1.43;;;27.90;99.90;;;;;;5042504;28;20220;-70
2021/04/06 02:11:39;;;;;;;7.53;1.50;;;27.80;99.90;;;;;;5047628;28;20172;-70
2021/04/06 02:14:08;;;;;;;7.53;1.53;;;27.40;99.90;;;;;;5043447;28;20258;-70
2021/04/06 02:16:48;;;;;;;3.67;1.00;;;26.90;99.90;;;;;;5045406;28;20194;-70
2021/04/06 02:19:29;;;;;;;8.73;2.60;;;26.80;99.90;;;;;;5050531;28;20381;-68
2021/04/06 02:22:09;;;;;;;8.17;1.47;;;26.70;99.90;;;;;;5047720;28;20172;-69
2021/04/06 02:24:52;;;;;;;6.90;1.53;;;26.70;99.90;;;;;;5049818;28;20199;-70
2021/04/06 02:27:23;;;;;;;7.47;1.50;;;26.60;99.90;;;;;;5049658;28;20188;-70
2021/04/06 02:29:59;;;;;;;6.07;1.67;;;26.50;99.90;;;;;;5042233;28;20220;-68
2021/04/06 02:32:28;;;;;;;6.93;1.53;;;26.60;99.90;;;;;;5052281;28;20249;-70
2021/04/06 02:35:01;;;;;;;6.53;2.83;;;26.80;99.90;;;;;;5027745;28;20596;-70
2021/04/06 02:37:36;;;;;;;7.33;1.53;;;27.30;99.90;;;;;;5048727;28;20266;-70
2021/04/06 02:40:12;;;;;;;9.77;3.90;;;27.80;99.90;;;;;;5054119;28;20218;-70
2021/04/06 02:42:55;;;;;;;6.97;1.73;;;28.30;99.90;;;;;;5048656;28;20202;-69
2021/04/06 02:45:30;;;;;;;7.37;1.40;;;28.20;99.90;;;;;;5051615;28;20250;-70
2021/04/06 02:48:11;;;;;;;5.43;1.60;;;28.00;99.90;;;;;;5050857;28;20187;-68
2021/04/06 02:50:42;;;;;;;7.13;1.20;;;27.70;99.90;;;;;;5045318;28;20191;-68
2021/04/06 02:53:15;;;;;;;5.33;1.53;;;27.30;99.90;;;;;;5053155;28;20194;-70
2021/04/06 02:55:43;;;;;;;10.27;1.63;;;27.10;99.90;;;;;;5047585;28;20553;-68
2021/04/06 02:58:17;;;;;;;6.60;1.60;;;27.00;99.90;;;;;;5047632;28;20221;-70
2021/04/06 03:00:45;;;;;;;11.67;1.80;;;26.80;99.90;;;;;;5049273;28;20184;-70
2021/04/06 03:03:24;;;;;;;9.87;1.40;;;26.50;99.90;;;;;;5049034;28;20527;-70
2021/04/06 03:06:07;;;;;;;5.87;1.70;;;26.30;99.90;;;;;;5044497;28;20591;-70
2021/04/06 03:08:36;;;;;;;10.37;2.33;;;26.20;99.90;;;;;;5050372;28;20219;-71
2021/04/06 03:11:05;;;;;;;7.70;1.50;;;26.10;99.90;;;;;;5050779;28;20191;-71
2021/04/06 03:13:33;;;;;;;3.13;1.60;;;26.10;99.90;;;;;;5050366;28;20270;-70
2021/04/06 03:16:05;;;;;;;6.80;1.43;;;26.50;99.90;;;;;;5052655;28;20219;-69
2021/04/06 03:18:34;;;;;;;6.83;1.40;;;26.80;99.90;;;;;;5052401;28;20184;-70
2021/04/06 03:21:04;;;;;;;5.77;1.23;;;27.10;99.90;;;;;;5053148;28;20207;-71
2021/04/06 03:23:33;;;;;;;4.83;1.20;;;27.00;99.90;;;;;;5051463;28;20176;-74
2021/04/06 03:26:04;;;;;;;5.33;1.20;;;26.90;99.90;;;;;;5050526;28;20183;-71
2021/04/06 03:28:37;;;;;;;6.87;1.00;;;26.80;99.90;;;;;;5053144;28;20545;-72
2021/04/06 03:31:18;;;;;;;8.70;1.80;;;26.80;99.90;;;;;;5046012;28;20267;-70
2021/04/06 03:33:48;;;;;;;2.83;0.80;;;26.90;99.90;;;;;;5037158;28;20180;-71
2021/04/06 03:36:27;;;;;;;5.27;1.20;;;26.90;99.90;;;;;;5053207;28;20183;-70
2021/04/06 03:38:56;;;;;;;8.77;1.57;;;26.50;99.90;;;;;;5052645;28;20266;-68
2021/04/06 03:41:26;;;;;;;10.03;1.67;;;26.40;99.90;;;;;;5052594;28;20184;-70
2021/04/06 03:44:01;;;;;;;12.20;3.80;;;26.40;99.90;;;;;;5047871;28;20206;-69
2021/04/06 03:46:29;;;;;;;7.87;1.83;;;26.00;99.90;;;;;;5046760;28;20235;-68
2021/04/06 03:49:16;;;;;;;6.43;1.37;;;25.80;99.90;;;;;;5053224;28;20298;-68
2021/04/06 03:51:58;;;;;;;7.10;1.53;;;25.80;99.90;;;;;;5049331;28;20536;-69
2021/04/06 03:54:48;;;;;;;6.40;1.17;;;25.80;99.90;;;;;;5042259;28;20546;-70
2021/04/06 04:00:10;;;;;;;3.67;0.60;;;25.10;99.90;;;;;;5052528;28;20178;-69
2021/04/06 04:02:38;;;;;;;3.80;1.13;;;24.90;99.90;;;;;;5044409;28;20215;-69
2021/04/06 04:05:07;;;;;;;8.40;1.43;;;24.90;99.90;;;;;;5052321;28;20537;-69
2021/04/06 04:07:38;;;;;;;6.40;1.00;;;25.50;99.90;;;;;;5052598;28;20199;-70
2021/04/06 04:10:07;;;;;;;3.23;1.00;;;26.50;99.90;;;;;;5052580;28;20226;-70
2021/04/06 04:12:35;;;;;;;4.73;1.50;;;27.00;99.90;;;;;;5047155;28;20202;-69
2021/04/06 04:15:03;;;;;;;4.10;1.50;;;27.30;99.90;;;;;;5052777;28;20233;-70
2021/04/06 04:17:31;;;;;;;3.27;1.20;;;27.10;99.90;;;;;;5053029;28;20172;-72
2021/04/06 04:19:58;;;;;;;9.80;1.70;;;27.50;99.90;;;;;;5053361;28;20267;-71
2021/04/06 04:22:26;;;;;;;5.97;1.27;;;27.90;99.90;;;;;;5047947;28;20182;-69
2021/04/06 04:24:53;;;;;;;7.27;1.83;;;28.40;99.90;;;;;;5050394;28;20188;-74
2021/04/06 04:27:20;;;;;;;3.93;1.03;;;28.70;99.90;;;;;;5043599;28;20181;-70
2021/04/06 04:29:48;;;;;;;5.87;1.50;;;28.40;99.90;;;;;;5042391;28;20204;-71
2021/04/06 04:32:15;;;;;;;7.03;1.40;;;28.00;99.90;;;;;;5046724;28;20181;-70
2021/04/06 04:34:43;;;;;;;4.50;1.63;;;27.30;99.90;;;;;;5046999;28;20548;-71
2021/04/06 04:37:10;;;;;;;5.53;1.63;;;26.70;99.90;;;;;;5038510;28;20645;-72
2021/04/06 04:39:38;;;;;;;4.63;1.33;;;26.40;99.90;;;;;;5041511;28;20185;-70
2021/04/06 04:42:06;;;;;;;10.07;2.03;;;26.20;99.90;;;;;;5044382;28;20195;-71
2021/04/06 04:44:33;;;;;;;6.87;1.80;;;26.00;99.90;;;;;;5039333;28;20184;-70
2021/04/06 04:47:01;;;;;;;4.87;1.30;;;25.70;99.90;;;;;;5045125;28;20218;-71
2021/04/06 04:49:28;;;;;;;6.27;1.90;;;25.50;99.90;;;;;;5046349;28;20226;-71
2021/04/06 04:51:55;;;;;;;8.57;1.37;;;25.20;99.90;;;;;;5046044;28;20193;-71
2021/04/06 04:54:23;;;;;;;7.43;1.53;;;25.10;99.90;;;;;;5049802;28;20237;-73
2021/04/06 04:56:51;;;;;;;6.70;1.63;;;25.10;99.90;;;;;;5037427;28;20185;-70
2021/04/06 04:59:18;;;;;;;7.23;1.73;;;25.10;99.90;;;;;;5046132;28;20188;-70
2021/04/06 05:01:46;;;;;;;9.30;1.80;;;25.20;99.90;;;;;;5043526;28;20234;-72
2021/04/06 05:04:13;;;;;;;8.83;1.73;;;25.20;99.90;;;;;;5050540;28;20275;-70
2021/04/06 05:06:41;;;;;;;12.93;1.90;;;25.10;99.90;;;;;;5032365;28;20212;-71
2021/04/06 05:09:09;;;;;;;11.00;2.10;;;24.80;99.90;;;;;;5037946;28;20690;-70
2021/04/06 05:11:36;;;;;;;8.83;1.80;;;24.70;99.90;;;;;;5039909;28;20181;-70
2021/04/06 05:14:06;;;;;;;9.70;1.80;;;24.70;99.90;;;;;;5047613;28;20522;-70
2021/04/06 05:16:34;;;;;;;13.20;2.10;;;24.70;99.90;;;;;;5051486;28;20600;-72
2021/04/06 05:19:01;;;;;;;11.20;2.10;;;24.70;99.90;;;;;;5047565;28;20310;-71
2021/04/06 05:21:28;;;;;;;13.33;2.03;;;24.70;99.90;;;;;;5035943;28;20195;-71
2021/04/06 05:23:56;;;;;;;14.93;2.03;;;24.70;99.90;;;;;;5046217;28;20557;-70
2021/04/06 05:26:23;;;;;;;7.37;1.13;;;24.70;99.90;;;;;;5046300;28;20183;-70
2021/04/06 05:28:51;;;;;;;8.73;1.50;;;24.60;99.90;;;;;;5050783;28;20235;-70
2021/04/06 05:31:20;;;;;;;7.73;1.37;;;24.50;99.90;;;;;;5045277;28;20180;-70
2021/04/06 05:33:47;;;;;;;8.67;1.47;;;24.40;99.90;;;;;;5048541;28;20187;-70
2021/04/06 05:36:17;;;;;;;14.83;2.13;;;24.30;99.90;;;;;;5046633;28;20192;-70
2021/04/06 05:38:45;;;;;;;7.70;1.50;;;24.40;99.90;;;;;;5052819;28;20520;-71
2021/04/06 05:41:14;;;;;;;9.73;1.40;;;24.60;99.90;;;;;;5047740;28;20180;-69
2021/04/06 05:43:42;;;;;;;9.23;1.00;;;24.80;99.90;;;;;;5053488;28;20187;-71
2021/04/06 05:46:12;;;;;;;8.93;1.33;;;24.80;99.90;;;;;;5053324;28;20216;-69
2021/04/06 05:48:41;;;;;;;6.50;1.50;;;25.40;99.90;;;;;;5037659;28;20212;-69
2021/04/06 05:51:08;;;;;;;5.43;1.17;;;26.10;99.90;;;;;;5045390;28;20653;-70
2021/04/06 05:53:36;;;;;;;8.37;1.53;;;26.90;99.90;;;;;;5050349;28;20267;-70
2021/04/06 05:56:03;;;;;;;9.23;1.53;;;27.50;99.90;;;;;;5051692;28;20231;-71
2021/04/06 05:58:30;;;;;;;4.43;1.13;;;27.10;99.90;;;;;;5052753;28;20176;-71
2021/04/06 06:01:00;;;;;;;5.80;1.40;;;26.40;99.90;;;;;;5046062;28;20660;-70
2021/04/06 06:03:28;;;;;;;7.10;1.43;;;26.40;99.90;;;;;;5045509;28;20184;-71
2021/04/06 06:05:55;;;;;;;9.77;1.80;;;26.60;99.90;;;;;;5054463;28;20178;-70
2021/04/06 06:08:25;;;;;;;6.77;1.37;;;26.40;99.90;;;;;;5047704;28;20288;-68
2021/04/06 06:11:01;;;;;;;6.77;1.40;;;26.40;99.90;;;;;;5048075;28;20203;-70
2021/04/06 06:13:29;;;;;;;11.17;1.67;;;26.50;99.90;;;;;;5052771;28;20183;-70
2021/04/06 06:16:20;;;;;;;6.10;1.30;;;26.10;99.90;;;;;;5045745;28;20617;-69
2021/04/06 06:19:05;;;;;;;7.13;1.43;;;25.70;99.90;;;;;;5048086;28;20184;-69
2021/04/06 06:21:46;;;;;;;10.80;2.10;;;26.00;99.90;;;;;;5050205;28;20240;-71
2021/04/06 06:24:28;;;;;;;7.17;1.43;;;25.40;99.90;;;;;;5052396;28;20258;-70
2021/04/06 06:26:56;;;;;;;10.03;1.47;;;25.10;99.90;;;;;;5037207;28;20191;-69
2021/04/06 06:29:27;;;;;;;6.73;1.30;;;24.80;99.90;;;;;;5053807;28;20212;-70
2021/04/06 06:31:58;;;;;;;11.50;1.67;;;24.70;99.90;;;;;;5053837;28;20176;-69
2021/04/06 06:34:31;;;;;;;19.00;3.07;;;24.50;99.90;;;;;;5052292;28;20700;-69
2021/04/06 06:37:06;;;;;;;5.97;1.63;;;24.40;99.90;;;;;;5053613;28;20230;-69
2021/04/06 06:39:36;;;;;;;10.60;1.73;;;24.30;99.90;;;;;;5053453;28;20186;-70
2021/04/06 06:42:14;;;;;;;11.03;1.83;;;24.20;99.90;;;;;;5043813;28;20179;-71
2021/04/06 06:44:41;;;;;;;7.63;1.20;;;24.00;99.90;;;;;;5047886;28;20188;-71
2021/04/06 06:47:14;;;;;;;8.77;1.57;;;24.00;99.90;;;;;;5051445;28;20733;-70
2021/04/06 06:49:44;;;;;;;12.10;2.13;;;24.00;99.90;;;;;;5053912;28;20295;-70
2021/04/06 06:52:24;;;;;;;10.50;2.17;;;24.00;99.90;;;;;;5053659;28;20639;-69
2021/04/06 06:54:57;;;;;;;6.60;1.47;;;23.80;99.90;;;;;;5053940;28;20180;-69
2021/04/06 06:57:34;;;;;;;13.20;1.93;;;23.80;99.90;;;;;;5052385;28;20168;-71
2021/04/06 07:00:22;;;;;;;9.20;1.60;;;23.80;99.90;;;;;;5051792;28;20630;-69
2021/04/06 07:02:50;;;;;;;5.93;1.57;;;23.70;99.90;;;;;;5047789;28;20184;-70
2021/04/06 07:05:22;;;;;;;11.90;2.00;;;23.60;99.90;;;;;;5048761;28;20181;-70
2021/04/06 07:07:58;;;;;;;9.23;1.60;;;23.70;99.90;;;;;;5049694;28;20385;-69
2021/04/06 07:10:32;;;;;;;9.33;1.67;;;23.60;99.90;;;;;;5051088;28;20276;-70
2021/04/06 07:13:34;;;;;;;10.57;4.60;;;23.50;99.90;;;;;;5045652;28;20222;-71
2021/04/06 07:16:01;;;;;;;7.07;1.80;;;23.50;99.90;;;;;;5033572;28;20199;-70
2021/04/06 07:18:29;;;;;;;9.20;3.10;;;23.50;99.90;;;;;;5049884;28;20382;-71
2021/04/06 07:21:05;;;;;;;9.57;2.27;;;23.40;99.90;;;;;;5046674;28;20187;-69
2021/04/06 07:23:49;;;;;;;10.93;1.90;;;23.40;99.90;;;;;;5052667;28;20187;-71
2021/04/06 07:26:19;;;;;;;11.23;1.93;;;23.30;99.90;;;;;;5048567;28;20241;-71
2021/04/06 07:28:46;;;;;;;7.53;1.83;;;23.30;99.90;;;;;;5053594;28;20247;-70
2021/04/06 07:31:15;;;;;;;8.83;1.60;;;23.20;99.90;;;;;;5047683;28;20261;-70
2021/04/06 07:33:45;;;;;;;6.43;1.80;;;23.20;99.90;;;;;;5053569;28;20188;-70
2021/04/06 07:36:24;;;;;;;7.87;1.70;;;23.20;99.90;;;;;;5046358;28;20180;-70
2021/04/06 07:39:05;;;;;;;8.83;1.60;;;23.20;99.90;;;;;;5052902;28;20586;-70
2021/04/06 07:41:35;;;;;;;4.33;1.40;;;23.10;99.90;;;;;;5053430;28;20194;-70
2021/04/06 07:44:05;;;;;;;9.03;2.40;;;23.10;99.90;;;;;;5034423;28;20609;-70
2021/04/06 07:46:35;;;;;;;4.53;1.30;;;23.10;99.90;;;;;;5045513;28;20225;-70
2021/04/06 07:49:30;;;;;;;9.77;2.40;;;23.10;99.90;;;;;;5048259;28;20200;-70
2021/04/06 07:51:59;;;;;;;12.90;1.70;;;23.10;99.90;;;;;;5046304;28;20204;-71
2021/04/06 07:54:48;;;;;;;6.10;1.40;;;23.00;99.90;;;;;;5053375;28;20176;-71
2021/04/06 07:57:16;;;;;;;13.60;1.83;;;23.00;99.90;;;;;;5053378;28;20180;-71
2021/04/06 07:59:50;;;;;;;12.10;2.30;;;23.00;99.90;;;;;;5050860;28;20192;-71
2021/04/06 08:02:22;;;;;;;11.40;1.70;;;22.90;99.90;;;;;;5052082;28;20263;-71
2021/04/06 08:04:53;;;;;;;9.03;2.00;;;22.90;99.90;;;;;;5053339;28;20653;-71
2021/04/06 08:07:22;;;;;;;9.23;1.93;;;22.90;99.90;;;;;;5052721;28;20306;-70
2021/04/06 08:09:50;;;;;;;6.33;1.50;;;22.80;99.90;;;;;;5053062;28;20234;-70
2021/04/06 08:12:28;;;;;;;10.67;1.90;;;22.80;99.90;;;;;;5052709;28;20179;-70
2021/04/06 08:15:01;;;;;;;6.10;1.50;;;22.80;99.90;;;;;;5050594;28;20266;-69
2021/04/06 08:17:28;;;;;;;9.80;1.80;;;22.80;99.90;;;;;;5044002;28;20184;-70
2021/04/06 08:20:22;;;;;;;10.17;1.93;;;22.70;99.90;;;;;;5045216;28;20207;-70
2021/04/06 08:23:01;;;;;;;11.13;1.93;;;22.70;99.90;;;;;;5051362;28;20234;-70
2021/04/06 08:25:31;;;;;;;8.63;2.37;;;22.70;99.90;;;;;;5051807;28;20179;-71
2021/04/06 08:28:22;;;;;;;14.93;3.63;;;22.70;99.90;;;;;;5052021;28;20172;-70
2021/04/06 08:30:50;;;;;;;14.30;3.27;;;22.70;99.90;;;;;;5049274;28;20208;-70
2021/04/06 08:33:17;;;;;;;13.37;5.47;;;22.60;99.90;;;;;;5049834;28;20169;-71
2021/04/06 08:38:24;;;;;;;7.90;2.07;;;22.50;99.90;;;;;;5051312;28;20180;-71
2021/04/06 08:40:54;;;;;;;10.10;2.10;;;22.50;99.90;;;;;;5051403;28;20270;-70
2021/04/06 08:43:33;;;;;;;10.90;3.23;;;22.50;99.90;;;;;;5052172;28;20222;-70
2021/04/06 08:46:06;;;;;;;8.07;1.70;;;22.50;99.90;;;;;;5050710;28;20222;-70
2021/04/06 08:48:53;;;;;;;10.43;5.13;;;22.50;99.90;;;;;;5051620;28;20203;-70
2021/04/06 08:51:40;;;;;;;14.30;3.10;;;22.40;99.90;;;;;;5055046;28;20188;-69
2021/04/06 08:54:16;;;;;;;9.43;2.30;;;22.40;99.90;;;;;;5056186;28;20168;-69
2021/04/06 08:56:50;;;;;;;8.67;2.80;;;22.50;99.90;;;;;;5055840;28;20180;-70
2021/04/06 08:59:20;;;;;;;16.63;3.00;;;22.50;99.90;;;;;;5055804;28;20678;-70
2021/04/06 09:01:56;;;;;;;13.03;2.27;;;22.40;99.90;;;;;;5055106;28;20184;-70
2021/04/06 09:04:29;;;;;;;12.67;2.80;;;22.50;99.90;;;;;;5055862;28;20218;-71
2021/04/06 09:06:57;;;;;;;10.63;2.40;;;22.40;99.90;;;;;;5055590;28;20182;-70
2021/04/06 09:09:29;;;;;;;11.50;2.20;;;22.40;99.90;;;;;;5055813;28;20219;-69
2021/04/06 09:11:58;;;;;;;10.10;2.50;;;22.40;99.90;;;;;;5056018;28;20175;-69
2021/04/06 09:14:28;;;;;;;11.10;2.27;;;22.50;99.90;;;;;;5055368;28;20634;-70
2021/04/06 09:16:56;;;;;;;13.53;2.47;;;22.50;99.90;;;;;;5055340;28;20638;-69
2021/04/06 09:19:25;;;;;;;8.23;1.63;;;22.50;99.90;;;;;;5052897;28;20267;-70
2021/04/06 09:21:55;;;;;;;12.63;2.17;;;22.40;99.90;;;;;;5051788;28;20183;-70
2021/04/06 09:24:25;;;;;;;11.57;2.00;;;22.40;99.90;;;;;;5055564;28;20237;-70
2021/04/06 09:26:54;;;;;;;9.23;2.33;;;22.40;99.90;;;;;;5055579;28;20254;-69
2021/04/06 09:29:24;;;;;;;7.80;1.67;;;22.40;99.90;;;;;;5054360;28;20233;-70
2021/04/06 09:31:58;;;;;;;14.03;2.47;;;22.40;99.90;;;;;;5051767;28;20187;-69
2021/04/06 09:34:32;;;;;;;9.80;1.87;;;22.50;99.90;;;;;;5055226;28;20673;-70
2021/04/06 09:37:01;;;;;;;9.87;3.50;;;22.50;99.90;;;;;;5048252;28;20888;-69
2021/04/06 09:39:30;;;;;;;13.53;4.63;;;22.50;99.90;;;;;;5051800;28;20664;-69
2021/04/06 09:41:59;;;;;;;9.47;2.40;;;22.40;99.90;;;;;;5046753;28;20630;-70
2021/04/06 09:44:31;;;;;;;6.73;2.10;;;22.40;99.90;;;;;;5047435;28;20188;-70
2021/04/06 09:47:01;;;;;;;10.30;2.20;;;22.40;99.90;;;;;;5049754;28;20176;-70
2021/04/06 09:49:34;;;;;;;5.83;1.83;;;22.40;99.90;;;;;;5040315;28;20216;-70
2021/04/06 09:52:05;;;;;;;9.70;1.90;;;22.40;99.90;;;;;;5049388;28;20183;-70
2021/04/06 09:54:37;;;;;;;14.27;2.53;;;22.40;99.90;;;;;;5052998;28;20176;-69
2021/04/06 09:57:10;;;;;;;7.77;2.23;;;22.40;99.90;;;;;;5055039;28;20187;-70
2021/04/06 09:59:45;;;;;;;6.57;1.60;;;22.40;99.90;;;;;;5047283;28;20191;-70
2021/04/06 10:02:17;;;;;;;4.93;1.90;;;22.30;99.90;;;;;;5052470;28;20183;-70
2021/04/06 10:04:47;;;;;;;7.00;1.57;;;22.30;99.90;;;;;;5049939;28;20184;-70
2021/04/06 10:07:14;;;;;;;8.67;2.23;;;22.30;99.90;;;;;;5051293;28;20180;-71
2021/04/06 10:10:01;;;;;;;14.07;2.80;;;22.40;99.90;;;;;;5053203;28;20218;-70
2021/04/06 10:12:31;;;;;;;8.20;2.17;;;22.30;99.90;;;;;;5054773;28;20175;-71
2021/04/06 10:14:59;;;;;;;7.77;1.77;;;22.30;99.90;;;;;;5049596;28;20180;-71
2021/04/06 10:17:44;;;;;;;10.03;2.43;;;22.30;99.90;;;;;;5053481;28;20180;-71
2021/04/06 10:20:14;;;;;;;8.03;1.67;;;22.40;99.90;;;;;;5045296;28;20176;-70
2021/04/06 10:22:49;;;;;;;13.77;1.47;;;22.40;99.90;;;;;;5048337;28;20519;-71
2021/04/06 10:25:26;;;;;;;11.53;1.60;;;22.40;99.90;;;;;;5053402;28;20202;-71
2021/04/06 10:27:57;;;;;;;10.17;1.80;;;22.40;99.90;;;;;;5046539;28;20262;-71
2021/04/06 10:30:47;;;;;;;15.43;7.13;;;22.30;99.90;;;;;;5040414;28;20291;-71
2021/04/06 10:33:21;;;;;;;10.77;4.60;;;22.30;99.90;;;;;;5043210;28;20192;-71
2021/04/06 10:35:51;;;;;;;10.43;2.70;;;22.20;99.90;;;;;;5040780;28;20636;-70
2021/04/06 10:38:53;;;;;;;8.97;2.23;;;22.20;99.90;;;;;;5052767;28;20259;-71
2021/04/06 10:41:26;;;;;;;7.47;1.60;;;22.10;99.90;;;;;;4997931;28;20191;-70
2021/04/06 10:43:57;;;;;;;7.83;1.63;;;22.00;99.90;;;;;;5054099;28;20210;-70
2021/04/06 10:46:26;;;;;;;16.00;2.30;;;22.00;99.90;;;;;;5036093;28;20315;-70
2021/04/06 10:49:03;;;;;;;9.03;2.30;;;22.00;99.90;;;;;;5046182;28;20634;-70
2021/04/06 10:51:33;;;;;;;8.50;2.33;;;22.00;99.90;;;;;;5035575;28;20183;-70
2021/04/06 10:54:08;;;;;;;17.60;4.50;;;22.10;99.90;;;;;;5053232;28;20183;-71
2021/04/06 10:56:47;;;;;;;8.50;2.67;;;22.10;99.90;;;;;;5053958;28;20550;-71
2021/04/06 10:59:27;;;;;;;14.97;5.60;;;22.10;99.90;;;;;;5035682;28;20182;-71
2021/04/06 11:01:54;;;;;;;9.97;2.70;;;22.10;99.90;;;;;;5045799;28;20715;-70
2021/04/06 11:04:23;;;;;;;11.43;2.80;;;22.10;99.90;;;;;;5053504;28;20188;-70
2021/04/06 11:07:02;;;;;;;18.30;6.07;;;22.00;99.90;;;;;;5053284;28;20184;-71
2021/04/06 11:09:39;;;;;;;10.27;2.77;;;22.00;99.90;;;;;;5047554;28;20215;-70
2021/04/06 11:12:08;;;;;;;11.17;2.27;;;22.00;99.90;;;;;;5053532;28;20226;-70
2021/04/06 11:14:37;;;;;;;7.13;2.10;;;21.90;99.90;;;;;;5048155;28;20183;-71
2021/04/06 11:17:06;;;;;;;7.70;1.50;;;21.90;99.90;;;;;;5048252;28;20216;-71
2021/04/06 11:19:41;;;;;;;9.77;1.70;;;21.90;99.90;;;;;;5047725;28;20278;-71
2021/04/06 11:22:15;;;;;;;12.03;1.77;;;21.90;99.90;;;;;;5052449;28;20175;-71
2021/04/06 11:24:45;;;;;;;8.43;1.70;;;21.90;99.90;;;;;;5052459;28;20184;-69
2021/04/06 11:27:18;;;;;;;17.60;2.13;;;21.90;99.90;;;;;;5049866;28;20188;-70
2021/04/06 11:29:47;;;;;;;8.47;4.10;;;21.90;99.90;;;;;;5053265;28;20211;-71
2021/04/06 11:32:20;;;;;;;10.57;2.23;;;21.80;99.90;;;;;;5049023;28;20212;-70
2021/04/06 11:34:48;;;;;;;7.47;2.67;;;21.80;99.90;;;;;;5053227;28;20589;-70
2021/04/06 11:37:16;;;;;;;6.13;1.60;;;21.80;99.90;;;;;;5052652;28;20626;-69
2021/04/06 11:39:48;;;;;;;5.43;1.30;;;21.70;99.90;;;;;;5050719;28;20238;-69
2021/04/06 11:42:17;;;;;;;8.37;1.83;;;21.60;99.90;;;;;;5052898;28;20258;-71
2021/04/06 11:44:45;;;;;;;5.77;1.73;;;21.50;99.90;;;;;;5049438;28;20715;-70
2021/04/06 11:47:13;;;;;;;6.93;1.67;;;21.50;99.90;;;;;;5053068;28;20175;-70
2021/04/06 11:49:40;;;;;;;5.27;1.57;;;21.40;99.90;;;;;;5051073;28;20246;-71
2021/04/06 11:52:08;;;;;;;7.07;1.63;;;21.30;99.90;;;;;;5030603;28;20173;-71
2021/04/06 11:54:35;;;;;;;9.50;1.97;;;21.30;99.90;;;;;;5048769;28;20179;-71
2021/04/06 11:57:04;;;;;;;8.97;1.77;;;21.30;99.90;;;;;;5035128;28;20175;-71
2021/04/06 11:59:31;;;;;;;12.17;4.10;;;21.20;99.90;;;;;;5043486;28;20168;-70
2021/04/06 12:01:59;;;;;;;11.00;5.60;;;21.20;99.90;;;;;;5052712;28;20266;-70
2021/04/06 12:04:29;;;;;;;8.70;2.67;;;21.20;99.90;;;;;;5043534;28;20188;-70
2021/04/06 12:06:56;;;;;;;7.50;1.93;;;21.20;99.90;;;;;;5025229;28;20194;-71
2021/04/06 12:09:24;;;;;;;6.93;1.60;;;21.10;99.90;;;;;;5044969;28;20204;-69
2021/04/06 12:11:51;;;;;;;7.10;1.50;;;21.10;99.90;;;;;;5051002;28;20265;-71
2021/04/06 12:14:19;;;;;;;8.93;1.57;;;21.00;99.90;;;;;;5052720;28;20172;-71
2021/04/06 12:16:46;;;;;;;6.23;1.50;;;21.00;99.90;;;;;;5052791;28;20195;-70
2021/04/06 12:19:13;;;;;;;9.37;1.70;;;21.00;99.90;;;;;;5053269;28;20184;-70
2021/04/06 12:21:41;;;;;;;5.80;1.40;;;21.00;99.90;;;;;;5053000;28;20190;-69
2021/04/06 12:24:09;;;;;;;8.93;1.60;;;21.00;99.90;;;;;;5048951;28;20192;-70
2021/04/06 12:26:36;;;;;;;6.63;1.30;;;21.00;99.90;;;;;;5044198;28;20189;-70
2021/04/06 12:29:04;;;;;;;8.83;1.60;;;21.00;99.90;;;;;;5053037;28;20298;-70
2021/04/06 12:31:31;;;;;;;10.60;2.03;;;21.00;99.90;;;;;;5035499;28;20662;-71
2021/04/06 12:33:58;;;;;;;9.33;1.73;;;20.90;99.90;;;;;;5049046;28;20577;-70
2021/04/06 12:36:27;;;;;;;7.93;1.90;;;20.90;99.90;;;;;;5045073;28;20519;-69
2021/04/06 12:38:54;;;;;;;8.43;1.67;;;20.90;99.90;;;;;;5052607;28;20274;-70
2021/04/06 12:41:22;;;;;;;6.63;1.50;;;20.90;99.90;;;;;;5034915;28;20180;-69
2021/04/06 12:43:49;;;;;;;6.57;1.43;;;20.90;99.90;;;;;;5052648;28;20180;-69
2021/04/06 12:46:17;;;;;;;7.60;1.50;;;20.80;99.90;;;;;;5036805;28;20221;-69
2021/04/06 12:48:44;;;;;;;5.10;1.40;;;20.80;99.90;;;;;;5037359;28;20257;-69
2021/04/06 12:51:11;;;;;;;6.73;1.10;;;20.80;99.90;;;;;;5051645;28;20176;-71
2021/04/06 12:53:39;;;;;;;6.67;1.23;;;20.70;99.90;;;;;;5052609;28;20263;-70
2021/04/06 12:56:06;;;;;;;7.40;1.57;;;20.70;99.90;;;;;;5052442;28;20538;-70
2021/04/06 12:58:34;;;;;;;7.17;1.70;;;20.70;99.90;;;;;;5052143;28;20187;-70
2021/04/06 13:01:01;;;;;;;9.13;1.60;;;20.60;99.90;;;;;;5052428;28;20183;-70
2021/04/06 13:03:28;;;;;;;4.80;1.63;;;20.60;99.90;;;;;;5051814;28;20188;-70
2021/04/06 13:05:56;;;;;;;8.27;1.57;;;20.60;99.90;;;;;;5038118;28;20219;-70
2021/04/06 13:08:23;;;;;;;7.37;1.77;;;20.60;99.90;;;;;;5051831;28;20259;-71
2021/04/06 13:10:53;;;;;;;9.13;2.10;;;20.60;99.90;;;;;;5052651;28;20581;-71
2021/04/06 13:13:21;;;;;;;7.33;1.70;;;20.60;99.90;;;;;;5050584;28;20602;-70